createdAt,value
2023-02-16T00:00:29.342Z,76.23
2023-02-16T00:02:56.760Z,79.23
2023-02-16T00:05:35.053Z,69.07
2023-02-16T00:08:02.529Z,68.50
2023-02-16T00:10:36.233Z,85.30
2023-02-16T00:13:43.642Z,78.93
2023-02-16T00:16:29.182Z,64.73
2023-02-16T00:18:56.454Z,69.65
2023-02-16T00:21:23.761Z,67.90
2023-02-16T00:23:51.389Z,71.97
2023-02-16T00:26:25.767Z,77.10
2023-02-16T00:28:58.648Z,69.33
2023-02-16T00:31:29.142Z,72.37
2023-02-16T00:33:56.373Z,76.30
2023-02-16T00:36:23.812Z,83.23
2023-02-16T00:38:51.191Z,84.17
2023-02-16T00:41:43.487Z,83.63
2023-02-16T00:44:18.456Z,86.87
2023-02-16T00:46:47.731Z,86.20
2023-02-16T00:49:21.164Z,83.63
2023-02-16T00:51:51.070Z,83.53
2023-02-16T00:54:18.148Z,90.70
2023-02-16T00:56:46.638Z,76.10
2023-02-16T00:59:20.818Z,85.13
2023-02-16T01:01:49.025Z,86.30
2023-02-16T01:04:24.144Z,90.63
2023-02-16T01:07:10.019Z,87.40
2023-02-16T01:09:55.909Z,89.63
2023-02-16T01:12:23.339Z,90.15
2023-02-16T01:14:54.369Z,85.07
2023-02-16T01:17:23.959Z,94.30
2023-02-16T01:19:51.074Z,94.03
2023-02-16T01:22:18.404Z,88.23
2023-02-16T01:24:45.586Z,86.93
2023-02-16T01:27:13.955Z,89.00
2023-02-16T01:29:41.235Z,88.53
2023-02-16T01:32:12.872Z,88.20
2023-02-16T01:34:40.306Z,89.43
2023-02-16T01:37:16.184Z,88.80
2023-02-16T01:39:43.655Z,86.10
2023-02-16T01:42:44.388Z,94.83
2023-02-16T01:45:24.031Z,86.03
2023-02-16T01:48:02.388Z,83.17
2023-02-16T01:51:03.094Z,79.53
2023-02-16T01:53:51.512Z,90.87
2023-02-16T01:56:33.372Z,88.33
2023-02-16T01:59:12.256Z,85.97
2023-02-16T02:02:02.409Z,88.67
2023-02-16T02:04:55.363Z,84.07
2023-02-16T02:07:53.722Z,84.00
2023-02-16T02:10:24.558Z,83.47
2023-02-16T02:13:32.080Z,94.50
2023-02-16T02:16:01.283Z,84.43
2023-02-16T02:18:28.488Z,91.53
2023-02-16T02:21:44.906Z,89.67
2023-02-16T02:24:41.976Z,78.90
2023-02-16T02:27:50.326Z,77.80
2023-02-16T02:30:42.018Z,86.60
2023-02-16T02:33:30.349Z,91.43
2023-02-16T02:36:01.602Z,85.00
2023-02-16T02:39:00.600Z,92.80
2023-02-16T02:42:06.201Z,83.93
2023-02-16T02:44:50.393Z,76.00
2023-02-16T02:47:18.171Z,96.50
2023-02-16T02:49:55.553Z,85.57
2023-02-16T02:52:23.523Z,87.20
2023-02-16T02:55:09.904Z,91.43
2023-02-16T02:57:57.718Z,86.57
2023-02-16T03:00:43.862Z,86.03
2023-02-16T03:05:59.543Z,94.00
2023-02-16T03:08:31.695Z,87.70
2023-02-16T03:11:24.963Z,95.60
2023-02-16T03:14:05.702Z,86.13
2023-02-16T03:16:44.580Z,89.33
2023-02-16T03:19:35.811Z,91.23
2023-02-16T03:22:23.169Z,82.13
2023-02-16T03:25:12.290Z,84.77
2023-02-16T03:28:01.014Z,92.97
2023-02-16T03:30:29.722Z,91.03
2023-02-16T03:32:57.016Z,81.97
2023-02-16T03:35:25.665Z,86.63
2023-02-16T03:37:52.919Z,89.63
2023-02-16T03:40:30.000Z,93.40
2023-02-16T03:43:06.856Z,85.57
2023-02-16T03:45:37.521Z,86.57
2023-02-16T03:48:05.684Z,86.67
2023-02-16T03:50:33.296Z,90.53
2023-02-16T03:53:07.091Z,94.20
2023-02-16T03:55:40.621Z,97.23
2023-02-16T03:58:11.783Z,85.03
2023-02-16T04:00:40.208Z,98.17
2023-02-16T04:03:11.796Z,92.37
2023-02-16T04:05:39.709Z,85.33
2023-02-16T04:08:08.727Z,97.47
2023-02-16T04:10:38.637Z,101.00
2023-02-16T04:13:05.886Z,91.43
2023-02-16T04:15:33.129Z,100.13
2023-02-16T04:18:00.882Z,92.07
2023-02-16T04:20:33.191Z,102.20
2023-02-16T04:23:02.039Z,81.83
2023-02-16T04:25:29.983Z,90.83
2023-02-16T04:27:57.333Z,88.00
2023-02-16T04:30:29.904Z,92.87
2023-02-16T04:32:58.832Z,98.67
2023-02-16T04:35:26.201Z,93.10
2023-02-16T04:37:53.576Z,84.87
2023-02-16T04:40:20.964Z,92.07
2023-02-16T04:42:48.340Z,91.27
2023-02-16T04:45:15.566Z,91.47
2023-02-16T04:47:42.886Z,90.77
2023-02-16T04:50:11.097Z,87.13
2023-02-16T04:52:39.027Z,96.33
2023-02-16T04:55:09.723Z,95.27
2023-02-16T04:57:40.642Z,98.53
2023-02-16T05:00:11.938Z,94.73
2023-02-16T05:02:39.271Z,90.33
2023-02-16T05:05:07.057Z,87.17
2023-02-16T05:07:34.364Z,86.53
2023-02-16T05:10:08.712Z,85.40
2023-02-16T05:12:54.811Z,92.60
2023-02-16T05:15:22.098Z,93.22
2023-02-16T05:17:49.284Z,85.30
2023-02-16T05:20:16.606Z,96.97
2023-02-16T05:22:47.258Z,97.37
2023-02-16T05:25:14.514Z,94.20
2023-02-16T05:27:41.924Z,101.07
2023-02-16T05:30:10.195Z,100.83
2023-02-16T05:32:37.411Z,92.97
2023-02-16T05:35:05.292Z,90.80
2023-02-16T05:37:32.434Z,95.67
2023-02-16T05:39:59.497Z,97.83
2023-02-16T05:42:26.617Z,90.03
2023-02-16T05:44:53.738Z,90.03
2023-02-16T05:47:20.905Z,96.30
2023-02-16T05:49:48.013Z,93.33
2023-02-16T05:52:15.092Z,95.57
2023-02-16T05:54:42.289Z,99.43
2023-02-16T05:57:10.522Z,95.30
2023-02-16T05:59:38.120Z,101.83
2023-02-16T06:02:05.459Z,97.67
2023-02-16T06:04:32.714Z,97.00
2023-02-16T06:06:59.934Z,92.00
2023-02-16T06:09:27.233Z,99.07
2023-02-16T06:11:54.365Z,104.20
2023-02-16T06:14:21.963Z,101.47
2023-02-16T06:16:51.746Z,98.27
2023-02-16T06:19:20.256Z,95.27
2023-02-16T06:21:47.721Z,101.73
2023-02-16T06:24:18.272Z,97.20
2023-02-16T06:26:48.866Z,107.67
2023-02-16T06:29:16.243Z,106.67
2023-02-16T06:31:43.584Z,98.60
2023-02-16T06:34:10.925Z,94.17
2023-02-16T06:36:39.048Z,98.23
2023-02-16T06:39:07.738Z,97.63
2023-02-16T06:41:38.038Z,94.80
2023-02-16T06:44:09.236Z,100.83
2023-02-16T06:46:41.804Z,105.47
2023-02-16T06:49:13.463Z,100.27
2023-02-16T06:51:40.890Z,92.37
2023-02-16T06:54:08.117Z,99.47
2023-02-16T06:56:37.599Z,91.90
2023-02-16T06:59:08.612Z,101.60
2023-02-16T07:01:35.839Z,97.80
2023-02-16T07:04:03.166Z,92.63
2023-02-16T07:06:30.995Z,84.27
2023-02-16T07:08:59.713Z,89.73
2023-02-16T07:11:26.920Z,84.50
2023-02-16T07:13:54.094Z,83.33
2023-02-16T07:16:21.556Z,76.83
2023-02-16T07:18:49.000Z,75.07
2023-02-16T07:21:16.384Z,86.50
2023-02-16T07:23:43.820Z,80.00
2023-02-16T07:26:11.225Z,71.27
2023-02-16T07:28:38.670Z,64.70
2023-02-16T07:31:09.108Z,67.60
2023-02-16T07:33:45.931Z,72.57
2023-02-16T07:36:14.013Z,77.27
2023-02-16T07:38:44.718Z,75.17
2023-02-16T07:41:12.684Z,73.43
2023-02-16T07:43:42.835Z,75.67
2023-02-16T07:46:11.063Z,68.33
2023-02-16T07:48:38.313Z,63.20
2023-02-16T07:51:09.056Z,82.07
2023-02-16T07:53:36.274Z,60.83
2023-02-16T07:56:03.882Z,70.10
2023-02-16T07:58:31.190Z,73.43
2023-02-16T08:01:14.742Z,67.57
2023-02-16T08:03:43.253Z,64.60
2023-02-16T08:06:10.546Z,66.13
2023-02-16T08:08:38.551Z,67.60
2023-02-16T08:11:16.278Z,65.80
2023-02-16T08:13:44.386Z,59.70
2023-02-16T08:16:21.522Z,58.87
2023-02-16T08:18:53.367Z,67.33
2023-02-16T08:21:24.927Z,62.83
2023-02-16T08:24:05.994Z,69.23
2023-02-16T08:26:41.331Z,62.10
2023-02-16T08:29:13.332Z,60.13
2023-02-16T08:31:41.822Z,61.50
2023-02-16T08:34:10.120Z,59.40
2023-02-16T08:36:40.115Z,62.00
2023-02-16T08:39:20.335Z,60.00
2023-02-16T08:41:49.820Z,58.37
2023-02-16T08:44:19.072Z,61.40
2023-02-16T08:46:48.881Z,59.10
2023-02-16T08:49:18.875Z,61.60
2023-02-16T08:51:49.805Z,57.70
2023-02-16T08:54:21.685Z,55.17
2023-02-16T08:56:49.801Z,57.20
2023-02-16T08:59:19.978Z,65.27
2023-02-16T09:01:51.108Z,54.67
2023-02-16T09:04:21.582Z,57.93
2023-02-16T09:06:49.205Z,59.83
2023-02-16T09:09:20.570Z,54.50
2023-02-16T09:11:48.961Z,62.23
2023-02-16T09:14:19.104Z,61.33
2023-02-16T09:16:46.672Z,49.70
2023-02-16T09:19:18.297Z,55.30
2023-02-16T09:21:51.000Z,54.83
2023-02-16T09:24:19.279Z,52.93
2023-02-16T09:26:46.666Z,51.40
2023-02-16T09:29:14.801Z,55.60
2023-02-16T09:31:44.378Z,54.37
2023-02-16T09:34:23.291Z,54.13
2023-02-16T09:36:51.623Z,60.63
2023-02-16T09:39:26.283Z,51.17
2023-02-16T09:42:15.113Z,53.87
2023-02-16T09:45:17.589Z,51.30
2023-02-16T09:47:51.885Z,53.33
2023-02-16T09:50:52.704Z,53.90
2023-02-16T09:53:41.810Z,56.97
2023-02-16T09:56:20.524Z,68.85
2023-02-16T09:59:22.229Z,47.70
2023-02-16T10:02:15.058Z,44.37
2023-02-16T10:05:17.305Z,47.03
2023-02-16T10:08:14.533Z,45.67
2023-02-16T10:11:30.887Z,49.60
2023-02-16T10:14:06.438Z,51.05
2023-02-16T10:16:46.870Z,46.95
2023-02-16T10:19:38.494Z,51.28
2023-02-16T10:22:17.315Z,52.88
2023-02-16T10:25:14.587Z,49.38
2023-02-16T10:27:45.968Z,50.70
2023-02-16T10:30:15.330Z,45.97
2023-02-16T10:33:17.242Z,49.30
2023-02-16T10:35:46.424Z,51.30
2023-02-16T10:39:05.102Z,51.72
2023-02-16T10:41:37.179Z,52.13
2023-02-16T10:44:08.582Z,50.05
2023-02-16T10:46:43.877Z,46.67
2023-02-16T10:49:15.347Z,51.33
2023-02-16T10:51:49.452Z,51.05
2023-02-16T10:54:28.299Z,45.55
2023-02-16T10:57:07.556Z,53.78
2023-02-16T10:59:46.079Z,48.78
2023-02-16T11:02:18.288Z,51.38
2023-02-16T11:04:49.676Z,45.53
2023-02-16T11:07:20.986Z,57.53
2023-02-16T11:09:55.719Z,47.55
2023-02-16T11:12:43.507Z,50.33
2023-02-16T11:15:17.564Z,48.40
2023-02-16T11:18:04.896Z,54.15
2023-02-16T11:20:42.620Z,55.22
2023-02-16T11:23:29.523Z,55.13
2023-02-16T11:26:21.501Z,55.95
2023-02-16T11:28:50.517Z,50.53
2023-02-16T11:31:39.952Z,53.55
2023-02-16T11:34:11.999Z,44.60
2023-02-16T11:36:47.397Z,43.88
2023-02-16T11:39:17.528Z,52.60
2023-02-16T11:41:57.599Z,54.13
2023-02-16T11:44:41.540Z,47.30
2023-02-16T11:47:34.427Z,46.35
2023-02-16T11:50:29.303Z,48.15
2023-02-16T11:53:10.441Z,48.47
2023-02-16T11:55:46.800Z,50.05
2023-02-16T11:58:27.840Z,48.63
2023-02-16T12:01:36.260Z,45.83
2023-02-16T12:04:35.340Z,54.13
2023-02-16T12:07:28.899Z,51.22
2023-02-16T12:10:10.754Z,48.20
2023-02-16T12:12:56.440Z,49.55
2023-02-16T12:16:09.143Z,56.78
2023-02-16T12:19:20.451Z,54.45
2023-02-16T12:22:09.696Z,53.72
2023-02-16T12:25:20.044Z,53.55
2023-02-16T12:28:01.778Z,48.80
2023-02-16T12:31:07.328Z,53.80
2023-02-16T12:33:58.780Z,59.20
2023-02-16T12:37:21.002Z,56.97
2023-02-16T12:40:18.993Z,55.60
2023-02-16T12:43:17.061Z,55.05
2023-02-16T12:45:47.251Z,77.60
2023-02-16T12:48:46.530Z,59.95
2023-02-16T12:51:23.908Z,61.25
2023-02-16T12:54:10.760Z,65.07
2023-02-16T12:56:52.641Z,62.42
2023-02-16T12:59:39.144Z,62.83
2023-02-16T13:02:27.415Z,72.72
2023-02-16T13:05:08.769Z,51.70
2023-02-16T13:07:47.070Z,57.10
2023-02-16T13:10:33.499Z,58.92
2023-02-16T13:13:16.248Z,60.38
2023-02-16T13:16:32.447Z,61.65
2023-02-16T13:18:59.867Z,64.45
2023-02-16T13:21:53.488Z,64.57
2023-02-16T13:24:33.223Z,59.08
2023-02-16T13:27:24.158Z,60.15
2023-02-16T13:30:41.852Z,57.08
2023-02-16T13:33:37.789Z,51.58
2023-02-16T13:36:19.633Z,57.10
2023-02-16T13:39:04.863Z,53.03
2023-02-16T13:42:08.680Z,52.70
2023-02-16T13:44:50.883Z,58.13
2023-02-16T13:47:26.881Z,55.92
2023-02-16T13:50:23.066Z,54.22
2023-02-16T13:52:53.404Z,55.08
2023-02-16T13:55:34.556Z,50.25
2023-02-16T13:58:12.954Z,58.80
2023-02-16T14:00:48.025Z,58.00
2023-02-16T14:03:21.138Z,64.88
2023-02-16T14:05:50.074Z,56.63
2023-02-16T14:08:22.945Z,51.15
2023-02-16T14:10:56.098Z,57.67
2023-02-16T14:13:29.201Z,59.25
2023-02-16T14:16:02.125Z,54.63
2023-02-16T14:18:41.551Z,47.72
2023-02-16T14:21:42.294Z,49.20
2023-02-16T14:24:26.130Z,60.53
2023-02-16T14:26:59.539Z,58.50
2023-02-16T14:29:42.687Z,63.33
2023-02-16T14:32:10.540Z,60.72
2023-02-16T14:34:50.134Z,59.17
2023-02-16T14:37:17.244Z,63.05
2023-02-16T14:40:06.862Z,61.95
2023-02-16T14:42:36.593Z,58.40
2023-02-16T14:45:18.895Z,62.80
2023-02-16T14:48:12.241Z,60.67
2023-02-16T14:50:55.005Z,74.28
2023-02-16T14:54:24.571Z,58.42
2023-02-16T14:57:00.572Z,59.40
2023-02-16T14:59:48.081Z,53.80
2023-02-16T15:02:43.247Z,61.33
2023-02-16T15:05:29.667Z,60.15
2023-02-16T15:08:11.670Z,57.10
2023-02-16T15:10:40.319Z,58.42
2023-02-16T15:13:08.152Z,59.33
2023-02-16T15:15:51.024Z,74.25
2023-02-16T15:18:37.578Z,59.13
2023-02-16T15:21:06.018Z,60.30
2023-02-16T15:23:35.786Z,61.85
2023-02-16T15:26:19.559Z,59.20
2023-02-16T15:29:20.624Z,62.33
2023-02-16T15:31:49.613Z,66.72
2023-02-16T15:34:37.956Z,65.63
2023-02-16T15:37:29.954Z,56.20
2023-02-16T15:40:27.642Z,56.80
2023-02-16T15:42:59.587Z,58.13
2023-02-16T15:45:37.982Z,61.05
2023-02-16T15:48:25.325Z,58.30
2023-02-16T15:51:08.810Z,67.72
2023-02-16T15:53:52.934Z,72.30
2023-02-16T15:56:53.909Z,66.82
2023-02-16T15:59:35.374Z,64.32
2023-02-16T16:02:17.576Z,63.33
2023-02-16T16:05:01.373Z,64.68
2023-02-16T16:07:35.812Z,68.05
2023-02-16T16:10:26.950Z,60.47
2023-02-16T16:13:00.108Z,61.00
2023-02-16T16:15:36.544Z,61.05
2023-02-16T16:18:06.208Z,60.22
2023-02-16T16:20:39.426Z,58.70
2023-02-16T16:23:15.604Z,62.47
2023-02-16T16:25:46.764Z,58.08
2023-02-16T16:28:37.979Z,54.45
2023-02-16T16:31:31.787Z,56.10
2023-02-16T16:34:12.501Z,48.05
2023-02-16T16:36:55.649Z,53.67
2023-02-16T16:39:35.286Z,62.35
2023-02-16T16:42:20.468Z,65.45
2023-02-16T16:44:59.941Z,56.10
2023-02-16T16:47:41.822Z,61.92
2023-02-16T16:50:14.810Z,67.80
2023-02-16T16:52:50.729Z,58.75
2023-02-16T16:55:35.295Z,67.25
2023-02-16T16:58:10.719Z,60.92
2023-02-16T17:00:40.335Z,63.17
2023-02-16T17:03:14.071Z,71.05
2023-02-16T17:05:42.222Z,66.30
2023-02-16T17:08:10.984Z,76.38
2023-02-16T17:10:43.843Z,72.47
2023-02-16T17:13:20.654Z,77.68
2023-02-16T17:16:27.346Z,69.07
2023-02-16T17:19:00.657Z,68.77
2023-02-16T17:21:28.476Z,67.68
2023-02-16T17:24:07.478Z,61.88
2023-02-16T17:26:48.220Z,63.47
2023-02-16T17:29:16.701Z,60.33
2023-02-16T17:31:44.878Z,69.80
2023-02-16T17:34:39.109Z,75.75
2023-02-16T17:37:12.878Z,74.57
2023-02-16T17:39:43.752Z,78.38
2023-02-16T17:42:13.103Z,80.70
2023-02-16T17:44:44.371Z,86.83
2023-02-16T17:47:17.628Z,82.63
2023-02-16T17:49:51.106Z,77.32
2023-02-16T17:52:21.035Z,85.47
2023-02-16T17:54:55.009Z,74.30
2023-02-16T17:57:29.887Z,82.27
2023-02-16T17:59:58.710Z,80.75
2023-02-16T18:02:28.508Z,76.43
2023-02-16T18:04:56.805Z,75.40
2023-02-16T18:07:25.142Z,68.27
2023-02-16T18:09:53.080Z,81.13
2023-02-16T18:12:22.620Z,74.47
2023-02-16T18:14:50.924Z,75.53
2023-02-16T18:17:20.102Z,76.33
2023-02-16T18:19:49.835Z,77.60
2023-02-16T18:22:18.086Z,73.23
2023-02-16T18:24:46.633Z,74.77
2023-02-16T18:27:18.263Z,71.27
2023-02-16T18:29:47.129Z,71.70
2023-02-16T18:32:21.998Z,68.97
2023-02-16T18:34:51.310Z,79.47
2023-02-16T18:37:20.399Z,74.63
2023-02-16T18:39:48.833Z,72.83
2023-02-16T18:42:22.243Z,74.37
2023-02-16T18:44:52.040Z,75.53
2023-02-16T18:47:20.291Z,75.10
2023-02-16T18:49:51.553Z,76.33
2023-02-16T18:52:23.100Z,75.30
2023-02-16T18:54:52.346Z,76.53
2023-02-16T18:57:23.165Z,68.77
2023-02-16T18:59:57.597Z,72.33
2023-02-16T19:02:26.150Z,74.83
2023-02-16T19:04:58.413Z,75.37
2023-02-16T19:07:26.899Z,71.43
2023-02-16T19:09:57.967Z,79.63
2023-02-16T19:12:28.057Z,70.83
2023-02-16T19:14:58.068Z,76.67
2023-02-16T19:17:29.377Z,79.27
2023-02-16T19:19:57.571Z,77.23
2023-02-16T19:22:25.992Z,73.53
2023-02-16T19:24:55.315Z,81.17
2023-02-16T19:27:24.237Z,75.53
2023-02-16T19:29:56.019Z,73.60
2023-02-16T19:32:24.715Z,66.80
2023-02-16T19:34:53.523Z,72.63
2023-02-16T19:37:22.324Z,80.03
2023-02-16T19:39:51.446Z,75.80
2023-02-16T19:42:20.547Z,81.17
2023-02-16T19:44:49.102Z,98.10
2023-02-16T19:47:18.646Z,72.33
2023-02-16T19:49:54.763Z,74.55
2023-02-16T19:52:23.536Z,84.27
2023-02-16T19:54:51.941Z,72.63
2023-02-16T19:57:23.232Z,82.63
2023-02-16T19:59:52.629Z,81.37
2023-02-16T20:02:24.146Z,77.13
2023-02-16T20:04:57.132Z,84.53
2023-02-16T20:07:25.733Z,76.07
2023-02-16T20:09:54.755Z,77.03
2023-02-16T20:12:28.931Z,85.73
2023-02-16T20:14:58.341Z,77.03
2023-02-16T20:17:26.902Z,81.43
2023-02-16T20:19:56.714Z,80.07
2023-02-16T20:22:29.355Z,70.40
2023-02-16T20:24:57.232Z,71.50
2023-02-16T20:27:31.305Z,83.37
2023-02-16T20:30:05.319Z,74.90
2023-02-16T20:32:34.532Z,69.77
2023-02-16T20:35:08.300Z,78.23
2023-02-16T20:37:36.586Z,83.40
2023-02-16T20:40:05.720Z,79.27
2023-02-16T20:42:39.071Z,79.27
2023-02-16T20:45:08.938Z,85.63
2023-02-16T20:47:37.223Z,77.90
2023-02-16T20:50:05.522Z,76.83
2023-02-16T20:52:35.170Z,77.50
2023-02-16T20:55:10.376Z,85.50
2023-02-16T20:57:41.066Z,92.07
2023-02-16T21:00:17.656Z,84.83
2023-02-16T21:02:46.252Z,74.43
2023-02-16T21:05:14.859Z,70.77
2023-02-16T21:07:49.141Z,78.77
2023-02-16T21:10:18.252Z,77.53
2023-02-16T21:12:47.036Z,70.40
2023-02-16T21:15:15.465Z,78.63
2023-02-16T21:17:43.625Z,59.23
2023-02-16T21:20:11.661Z,77.27
2023-02-16T21:22:43.290Z,81.80
2023-02-16T21:25:12.612Z,76.33
2023-02-16T21:27:42.287Z,80.53
2023-02-16T21:30:12.934Z,83.13
2023-02-16T21:32:40.410Z,90.37
2023-02-16T21:35:09.562Z,78.63
2023-02-16T21:37:38.691Z,89.63
2023-02-16T21:40:26.435Z,92.20
2023-02-16T21:42:53.734Z,86.20
2023-02-16T21:45:21.104Z,90.40
2023-02-16T21:48:07.316Z,92.53
2023-02-16T21:50:41.835Z,84.17
2023-02-16T21:53:10.149Z,89.07
2023-02-16T21:55:57.527Z,88.00
2023-02-16T21:58:27.237Z,84.17
2023-02-16T22:00:56.499Z,92.00
2023-02-16T22:03:23.967Z,95.60
2023-02-16T22:05:53.930Z,80.33
2023-02-16T22:08:21.115Z,85.30
2023-02-16T22:10:48.270Z,86.07
2023-02-16T22:13:15.390Z,88.17
2023-02-16T22:15:42.673Z,84.43
2023-02-16T22:18:10.076Z,83.37
2023-02-16T22:20:37.313Z,88.13
2023-02-16T22:23:04.635Z,92.93
2023-02-16T22:25:31.762Z,85.80
2023-02-16T22:27:59.031Z,84.10
2023-02-16T22:30:26.172Z,96.97
2023-02-16T22:32:53.383Z,91.57
2023-02-16T22:35:20.667Z,91.73
2023-02-16T22:37:48.002Z,85.80
2023-02-16T22:40:15.794Z,80.70
2023-02-16T22:42:43.251Z,92.30
2023-02-16T22:45:10.981Z,92.63
2023-02-16T22:47:39.496Z,86.67
2023-02-16T22:50:13.118Z,90.00
2023-02-16T22:52:40.531Z,87.93
2023-02-16T22:55:08.705Z,89.43
2023-02-16T22:57:40.138Z,87.40
2023-02-16T23:00:14.688Z,87.03
2023-02-16T23:02:42.317Z,96.55
2023-02-16T23:05:09.522Z,93.53
2023-02-16T23:07:37.462Z,87.40
2023-02-16T23:10:05.671Z,92.63
2023-02-16T23:12:33.020Z,92.93
2023-02-16T23:15:00.322Z,97.03
2023-02-16T23:17:27.493Z,89.03
2023-02-16T23:19:54.756Z,88.53
2023-02-16T23:22:21.877Z,92.47
2023-02-16T23:25:08.999Z,91.20
2023-02-16T23:27:36.350Z,93.43
2023-02-16T23:30:04.769Z,87.53
2023-02-16T23:32:32.251Z,93.13
2023-02-16T23:34:59.884Z,103.03
2023-02-16T23:37:31.542Z,92.07
2023-02-16T23:39:59.415Z,102.33
2023-02-16T23:42:26.783Z,102.43
2023-02-16T23:44:55.396Z,99.07
2023-02-16T23:47:22.886Z,87.47
2023-02-16T23:49:50.446Z,88.73
2023-02-16T23:52:18.477Z,93.97
2023-02-16T23:54:48.879Z,79.23
2023-02-16T23:57:19.630Z,100.43
2023-02-16T23:59:46.944Z,83.90
